Bookmark and Share
Track history (hours):
 

UAL Aberdeen

Last reported at 2014-Apr-20 06:20 UTC. Time now 2014-Apr-20 20:58 UTC.
Position N 36°27' E 014°32'.

Length 129 m; beam 17 m.

Type: Cargo ship. MMSI: 244093964.

NotesDate/timePositionNaut miles runAvg speedWind from/ knotsBaromVisibWave heightAir tempDewpointWater temp
2014-Apr-20 06:20N 36°27' E 014°32'1013.4
2014-Apr-20 05:33N 36°31' E 014°20'1313.4
2014-Apr-20 04:33N 36°35' E 014°05'1313.2
2014-Apr-20 03:33N 36°39' E 013°49'1313.3
2014-Apr-20 02:33N 36°43' E 013°33'1413.6
2014-Apr-20 01:33N 36°47' E 013°17'1313.5
2014-Apr-20 00:33N 36°51' E 013°01'1413.1
2014-Apr-19 23:31N 36°55' E 012°44'4112.7
2014-Apr-19 20:18N 37°08' E 011°56'1012.5
2014-Apr-19 19:32N 37°12' E 011°45'1212.6
2014-Apr-19 18:33N 37°16' E 011°30'1312.8
2014-Apr-19 17:33N 37°20' E 011°15'1312.6
2014-Apr-19 16:33N 37°24' E 010°60'1313.1
2014-Apr-19 15:34N 37°27' E 010°44'1413.7
2014-Apr-19 14:33N 37°31' E 010°27'3113.5
2014-Apr-19 12:15N 37°36' E 009°49'912.9
2014-Apr-19 11:33N 37°36' E 009°37'1413.4
2014-Apr-19 10:31N 37°38' E 009°20'1313.1
2014-Apr-19 09:33N 37°40' E 009°04'1313.1
2014-Apr-19 08:32N 37°38' E 008°47'1413.2
2014-Apr-19 07:31N 37°36' E 008°30'1513.4
2014-Apr-19 06:24N 37°33' E 008°12'1813.9
2014-Apr-19 05:05N 37°31' E 007°49'713.1
2014-Apr-19 04:31N 37°30' E 007°40'13813.5
2014-Apr-18 18:15N 37°10' E 004°48'913.2
2014-Apr-18 17:33N 37°09' E 004°36'2912.7
2014-Apr-18 15:15N 37°05' E 003°60'913.4
2014-Apr-18 14:33N 37°03' E 003°48'1413.2
2014-Apr-18 13:28N 37°01' E 003°30'1313.6
2014-Apr-18 12:33N 36°59' E 003°15'1413.7
2014-Apr-18 11:33N 36°58' E 002°58'1414.0
2014-Apr-18 10:33N 36°56' E 002°41'1413.9
2014-Apr-18 09:33N 36°53' E 002°24'1413.7
2014-Apr-18 08:33N 36°51' E 002°07'1414.0
2014-Apr-18 07:33N 36°49' E 001°49'1414.1
2014-Apr-18 06:33N 36°47' E 001°32'1414.1
2014-Apr-18 05:33N 36°46' E 001°14'1313.4
2014-Apr-18 04:33N 36°44' E 000°58'1713.4
2014-Apr-18 03:18N 36°42' E 000°37'1013.7
2014-Apr-18 02:33N 36°40' E 000°24'1414.0
2014-Apr-18 01:33N 36°37' E 000°07'1312.8
2014-Apr-18 00:30N 36°36' W 000°09'1212.8
2014-Apr-17 23:33N 36°33' W 000°24'1313.0
2014-Apr-17 22:33N 36°30' W 000°40'1312.9
2014-Apr-17 21:33N 36°28' W 000°56'1514.6
2014-Apr-17 20:33N 36°27' W 001°14'19112.7
2014-Apr-17 05:33N 36°01' W 005°09'1515.3
2014-Apr-17 04:33N 35°58' W 005°27'1313.2
2014-Apr-17 03:33N 35°55' W 005°43'1312.8
2014-Apr-17 02:33N 35°55' W 005°59'13913.4
2014-Apr-16 16:08N 36°27' W 008°47'9312.1
2014-Apr-16 08:27N 37°46' W 009°49'1713.3
2014-Apr-16 07:12N 38°02' W 009°55'3513.1
2014-Apr-16 04:32N 38°36' W 010°05'1713.1
2014-Apr-16 03:15N 38°53' W 010°05'912.9
2014-Apr-16 02:31N 39°02' W 010°05'1312.8
2014-Apr-16 01:32N 39°15' W 010°06'  
2014-Apr-11 23:23N 43°50' W 006°09'1110.4
2014-Apr-11 22:19N 43°48' W 005°54'810.3
2014-Apr-11 21:33N 43°44' W 005°44'9 9.6
2014-Apr-11 20:33N 43°35' W 005°40'1 1.1
2014-Apr-11 19:33N 43°35' W 005°41'0 0.0
2014-Apr-11 17:28N 43°35' W 005°41'0 0.0
2014-Apr-11 16:31N 43°35' W 005°41'0 0.0
2014-Apr-11 15:25N 43°35' W 005°41'0 0.0
2014-Apr-11 14:29N 43°35' W 005°41'0 0.0
2014-Apr-11 13:17N 43°35' W 005°41'0 0.0
2014-Apr-11 12:31N 43°35' W 005°41'0 0.0
2014-Apr-11 11:13N 43°35' W 005°41'0 0.0
2014-Apr-11 10:31N 43°35' W 005°41'0 0.0
2014-Apr-11 09:30N 43°35' W 005°41'0 0.0
2014-Apr-11 08:31N 43°35' W 005°41'0 0.0
2014-Apr-11 07:27N 43°35' W 005°41'0 0.0
2014-Apr-11 06:33N 43°35' W 005°41'0 0.0
2014-Apr-11 05:33N 43°35' W 005°41'0 0.0
2014-Apr-11 04:33N 43°35' W 005°41'0 0.0
2014-Apr-11 03:27N 43°35' W 005°41'0 0.0
2014-Apr-11 02:33N 43°35' W 005°41'0 0.0
2014-Apr-11 01:33N 43°35' W 005°41'0 0.0
2014-Apr-11 00:33N 43°35' W 005°41'0 0.0
2014-Apr-10 23:33N 43°35' W 005°41'0 0.0
2014-Apr-10 22:33N 43°35' W 005°41'0 0.0
2014-Apr-10 21:33N 43°35' W 005°41'  

Dump ship's entire track history

sailing weather and tide predictions

UAL Aberdeen — PBHZ — position and weather